createdAt,value
2022-08-04T00:00:34.706Z,28.50
2022-08-04T00:03:14.978Z,28.40
2022-08-04T00:06:02.198Z,28.40
2022-08-04T00:08:45.926Z,28.30
2022-08-04T00:11:22.173Z,28.30
2022-08-04T00:14:03.645Z,28.30
2022-08-04T00:16:42.541Z,28.30
2022-08-04T00:19:17.975Z,28.30
2022-08-04T00:21:56.515Z,28.30
2022-08-04T00:24:25.757Z,28.20
2022-08-04T00:26:55.732Z,28.20
2022-08-04T00:29:28.404Z,28.20
2022-08-04T00:31:58.194Z,28.20
2022-08-04T00:34:29.462Z,28.20
2022-08-04T00:36:59.334Z,28.20
2022-08-04T00:39:29.089Z,28.10
2022-08-04T00:42:34.402Z,28.10
2022-08-04T00:46:10.688Z,28.10
2022-08-04T00:49:01.809Z,28.00
2022-08-04T00:52:30.975Z,28.00
2022-08-04T00:55:02.424Z,27.90
2022-08-04T00:57:49.438Z,27.90
2022-08-04T01:00:19.064Z,27.90
2022-08-04T01:03:10.520Z,27.80
2022-08-04T01:05:56.488Z,27.80
2022-08-04T01:08:46.724Z,27.80
2022-08-04T01:11:32.519Z,27.80
2022-08-04T01:14:44.397Z,27.70
2022-08-04T01:17:22.790Z,27.70
2022-08-04T01:20:05.964Z,27.70
2022-08-04T01:23:40.320Z,27.60
2022-08-04T01:26:57.349Z,27.60
2022-08-04T01:29:36.389Z,27.60
2022-08-04T01:32:25.727Z,27.60
2022-08-04T01:35:03.397Z,27.60
2022-08-04T01:37:49.103Z,27.60
2022-08-04T01:40:18.438Z,27.60
2022-08-04T01:42:46.486Z,27.60
2022-08-04T01:45:16.617Z,27.50
2022-08-04T01:47:52.151Z,27.50
2022-08-04T01:50:22.211Z,27.50
2022-08-04T01:52:54.303Z,27.50
2022-08-04T01:55:23.288Z,27.50
2022-08-04T01:57:54.445Z,27.50
2022-08-04T02:00:27.740Z,27.50
2022-08-04T02:02:58.193Z,27.40
2022-08-04T02:06:02.349Z,27.40
2022-08-04T02:08:30.899Z,27.40
2022-08-04T02:11:14.271Z,27.40
2022-08-04T02:13:58.243Z,27.30
2022-08-04T02:16:34.141Z,27.30
2022-08-04T02:19:14.782Z,27.30
2022-08-04T02:21:47.401Z,27.30
2022-08-04T02:24:22.395Z,27.30
2022-08-04T02:26:54.662Z,27.30
2022-08-04T02:29:35.997Z,27.20
2022-08-04T02:32:08.141Z,27.20
2022-08-04T02:34:47.723Z,27.20
2022-08-04T02:37:19.259Z,27.20
2022-08-04T02:39:53.474Z,27.20
2022-08-04T02:42:22.379Z,27.20
2022-08-04T02:44:52.682Z,27.20
2022-08-04T02:48:29.137Z,27.20
2022-08-04T02:50:29.053Z,27.10
2022-08-04T02:53:01.223Z,27.10
2022-08-04T02:55:31.148Z,27.10
2022-08-04T02:58:02.935Z,27.10
2022-08-04T03:00:31.961Z,27.10
2022-08-04T03:03:19.642Z,27.00
2022-08-04T03:06:16.391Z,27.00
2022-08-04T03:09:40.061Z,26.90
2022-08-04T03:12:50.820Z,26.90
2022-08-04T03:15:49.219Z,26.90
2022-08-04T03:18:48.653Z,26.90
2022-08-04T03:22:18.195Z,26.80
2022-08-04T03:25:28.804Z,26.80
2022-08-04T03:28:43.389Z,26.80
2022-08-04T03:31:53.432Z,26.70
2022-08-04T03:34:43.378Z,26.70
2022-08-04T03:37:40.297Z,26.70
2022-08-04T03:40:37.107Z,26.70
2022-08-04T03:43:59.212Z,26.70
2022-08-04T03:47:00.597Z,26.60
2022-08-04T03:50:17.190Z,26.60
2022-08-04T03:53:09.104Z,26.60
2022-08-04T03:55:54.726Z,26.60
2022-08-04T03:59:07.314Z,26.50
2022-08-04T04:02:21.606Z,26.50
2022-08-04T04:05:13.517Z,26.50
2022-08-04T04:08:21.374Z,26.50
2022-08-04T04:11:24.421Z,26.50
2022-08-04T04:14:19.308Z,26.50
2022-08-04T04:17:10.282Z,26.50
2022-08-04T04:20:12.710Z,26.50
2022-08-04T04:23:04.011Z,26.50
2022-08-04T04:25:42.202Z,26.50
2022-08-04T04:28:53.411Z,26.50
2022-08-04T04:31:48.550Z,26.50
2022-08-04T04:34:46.581Z,26.50
2022-08-04T04:37:47.728Z,26.60
2022-08-04T04:40:35.033Z,26.60
2022-08-04T04:43:51.165Z,26.60
2022-08-04T04:46:38.054Z,26.70
2022-08-04T04:49:21.588Z,26.70
2022-08-04T04:51:55.750Z,26.80
2022-08-04T04:54:35.180Z,26.90
2022-08-04T04:57:15.720Z,26.90
2022-08-04T04:59:56.849Z,27.00
2022-08-04T05:03:00.381Z,27.10
2022-08-04T05:05:44.065Z,27.10
2022-08-04T05:09:02.000Z,27.10
2022-08-04T05:12:00.114Z,27.20
2022-08-04T05:14:41.329Z,27.30
2022-08-04T05:17:22.161Z,27.30
2022-08-04T05:20:01.601Z,27.30
2022-08-04T05:22:35.508Z,27.30
2022-08-04T05:25:13.372Z,27.40
2022-08-04T05:27:51.164Z,27.40
2022-08-04T05:30:22.302Z,27.50
2022-08-04T05:33:00.033Z,27.50
2022-08-04T05:35:47.754Z,27.60
2022-08-04T05:38:30.803Z,27.60
2022-08-04T05:41:00.185Z,27.70
2022-08-04T05:43:28.444Z,27.80
2022-08-04T05:45:59.500Z,27.80
2022-08-04T05:48:29.185Z,27.90
2022-08-04T05:51:00.948Z,28.00
2022-08-04T05:53:30.289Z,28.10
2022-08-04T05:55:59.989Z,28.20
2022-08-04T05:58:30.888Z,28.20
2022-08-04T06:01:02.501Z,28.20
2022-08-04T06:03:32.719Z,28.40
2022-08-04T06:06:02.476Z,28.60
2022-08-04T06:08:31.656Z,28.70
2022-08-04T06:11:06.500Z,28.80
2022-08-04T06:13:47.931Z,28.90
2022-08-04T06:16:30.323Z,29.10
2022-08-04T06:19:59.803Z,29.20
2022-08-04T06:21:57.768Z,29.40
2022-08-04T06:24:30.280Z,29.50
2022-08-04T06:26:59.163Z,29.70
2022-08-04T06:29:34.204Z,29.90
2022-08-04T06:32:30.889Z,30.00
2022-08-04T06:35:04.905Z,30.20
2022-08-04T06:37:42.310Z,30.40
2022-08-04T06:40:31.435Z,30.60
2022-08-04T06:43:02.644Z,30.80
2022-08-04T06:45:34.416Z,31.00
2022-08-04T06:48:06.322Z,31.20
2022-08-04T06:51:29.520Z,31.40
2022-08-04T06:53:26.119Z,31.60
2022-08-04T06:55:57.257Z,31.70
2022-08-04T06:58:28.243Z,31.80
2022-08-04T07:01:01.867Z,32.10
2022-08-04T07:03:33.236Z,32.20
2022-08-04T07:06:06.177Z,32.40
2022-08-04T07:08:42.760Z,32.50
2022-08-04T07:11:12.837Z,32.70
2022-08-04T07:13:45.402Z,32.80
2022-08-04T07:16:16.347Z,32.90
2022-08-04T07:18:45.781Z,33.00
2022-08-04T07:21:22.757Z,33.00
2022-08-04T07:23:51.618Z,33.20
2022-08-04T07:26:19.897Z,33.20
2022-08-04T07:28:48.270Z,33.30
2022-08-04T07:31:33.308Z,33.40
2022-08-04T07:34:11.572Z,33.50
2022-08-04T07:36:50.968Z,33.70
2022-08-04T07:39:27.743Z,33.80
2022-08-04T07:42:02.325Z,33.90
2022-08-04T07:44:32.653Z,34.00
2022-08-04T07:47:02.772Z,34.10
2022-08-04T07:49:55.900Z,34.20
2022-08-04T07:52:22.175Z,34.30
2022-08-04T07:54:51.487Z,34.40
2022-08-04T07:57:40.235Z,34.60
2022-08-04T08:00:10.765Z,34.70
2022-08-04T08:02:42.989Z,34.80
2022-08-04T08:05:16.806Z,35.00
2022-08-04T08:07:50.877Z,35.10
2022-08-04T08:10:23.827Z,35.30
2022-08-04T08:12:52.879Z,35.40
2022-08-04T08:15:22.301Z,35.60
2022-08-04T08:17:58.181Z,35.70
2022-08-04T08:20:32.363Z,35.80
2022-08-04T08:23:02.558Z,35.90
2022-08-04T08:25:32.821Z,36.00
2022-08-04T08:28:03.054Z,36.10
2022-08-04T08:30:31.458Z,36.10
2022-08-04T08:33:05.876Z,36.20
2022-08-04T08:35:54.158Z,36.20
2022-08-04T08:38:39.313Z,36.30
2022-08-04T08:42:08.008Z,36.40
2022-08-04T08:45:31.008Z,36.40
2022-08-04T08:48:26.979Z,36.40
2022-08-04T08:51:24.881Z,36.50
2022-08-04T08:54:18.125Z,36.50
2022-08-04T08:57:03.986Z,36.60
2022-08-04T09:00:05.713Z,36.50
2022-08-04T09:03:18.946Z,36.60
2022-08-04T09:06:04.096Z,36.60
2022-08-04T09:09:30.559Z,36.60
2022-08-04T09:12:10.221Z,36.60
2022-08-04T09:14:48.450Z,36.60
2022-08-04T09:17:28.313Z,36.60
2022-08-04T09:20:03.862Z,36.60
2022-08-04T09:22:42.583Z,36.60
2022-08-04T09:25:21.410Z,36.60
2022-08-04T09:27:55.649Z,36.60
2022-08-04T09:30:30.037Z,36.50
2022-08-04T09:33:11.549Z,36.50
2022-08-04T09:35:55.565Z,36.40
2022-08-04T09:38:36.701Z,36.40
2022-08-04T09:41:40.796Z,36.30
2022-08-04T09:44:49.389Z,36.30
2022-08-04T09:47:21.465Z,36.20
2022-08-04T09:49:59.056Z,36.20
2022-08-04T09:52:45.458Z,36.10
2022-08-04T09:55:32.399Z,36.00
2022-08-04T09:58:12.580Z,36.00
2022-08-04T10:00:47.769Z,36.00
2022-08-04T10:03:20.392Z,36.00
2022-08-04T10:06:05.385Z,35.90
2022-08-04T10:09:00.904Z,35.70
2022-08-04T10:11:55.631Z,35.80
2022-08-04T10:14:46.716Z,35.60
2022-08-04T10:17:32.678Z,35.70
2022-08-04T10:20:09.894Z,35.60
2022-08-04T10:23:10.557Z,35.60
2022-08-04T10:26:06.859Z,35.50
2022-08-04T10:28:44.500Z,35.50
2022-08-04T10:31:21.730Z,35.40
2022-08-04T10:33:56.885Z,35.40
2022-08-04T10:36:32.742Z,35.40
2022-08-04T10:39:12.275Z,35.30
2022-08-04T10:42:13.979Z,35.30
2022-08-04T10:45:01.981Z,35.20
2022-08-04T10:47:42.378Z,35.20
2022-08-04T10:50:13.932Z,35.20
2022-08-04T10:52:55.076Z,35.20
2022-08-04T10:56:06.609Z,35.10
2022-08-04T10:58:25.317Z,35.10
2022-08-04T11:02:01.825Z,35.10
2022-08-04T11:04:27.082Z,35.00
2022-08-04T11:06:59.234Z,35.00
2022-08-04T11:09:29.961Z,35.00
2022-08-04T11:12:07.455Z,34.90
2022-08-04T11:14:45.310Z,34.90
2022-08-04T11:17:21.585Z,34.90
2022-08-04T11:20:32.196Z,34.90
2022-08-04T11:23:03.800Z,34.80
2022-08-04T11:25:51.140Z,34.80
2022-08-04T11:28:59.269Z,34.80
2022-08-04T11:31:36.282Z,34.80
2022-08-04T11:34:20.768Z,34.70
2022-08-04T11:37:01.388Z,34.60
2022-08-04T11:39:36.739Z,34.70
2022-08-04T11:42:19.838Z,34.70
2022-08-04T11:44:51.585Z,34.70
2022-08-04T11:47:31.278Z,34.60
2022-08-04T11:50:09.352Z,34.60
2022-08-04T11:52:42.570Z,34.60
2022-08-04T11:55:14.536Z,34.60
2022-08-04T11:57:43.904Z,34.60
2022-08-04T12:00:15.380Z,34.60
2022-08-04T12:03:03.119Z,34.60
2022-08-04T12:05:37.838Z,34.60
2022-08-04T12:08:30.460Z,34.50
2022-08-04T12:11:16.598Z,34.50
2022-08-04T12:14:00.233Z,34.50
2022-08-04T12:16:39.548Z,34.50
2022-08-04T12:19:22.454Z,34.50
2022-08-04T12:21:59.978Z,34.50
2022-08-04T12:24:37.502Z,34.40
2022-08-04T12:27:14.746Z,34.40
2022-08-04T12:29:43.285Z,34.50
2022-08-04T12:32:48.406Z,34.40
2022-08-04T12:35:30.387Z,34.40
2022-08-04T12:38:05.302Z,34.40
2022-08-04T12:40:43.230Z,34.30
2022-08-04T12:43:19.988Z,34.30
2022-08-04T12:45:53.742Z,34.30
2022-08-04T12:48:24.944Z,34.40
2022-08-04T12:50:57.790Z,34.30
2022-08-04T12:53:33.392Z,34.30
2022-08-04T12:56:28.898Z,34.30
2022-08-04T12:59:06.043Z,34.30
2022-08-04T13:02:09.700Z,34.30
2022-08-04T13:04:29.557Z,34.30
2022-08-04T13:07:04.195Z,34.30
2022-08-04T13:09:35.371Z,34.30
2022-08-04T13:12:13.382Z,34.30
2022-08-04T13:14:44.560Z,34.30
2022-08-04T13:17:13.084Z,34.30
2022-08-04T13:19:50.223Z,34.30
2022-08-04T13:22:28.430Z,34.20
2022-08-04T13:26:41.833Z,34.30
2022-08-04T13:27:55.442Z,34.30
2022-08-04T13:30:39.921Z,34.30
2022-08-04T13:33:08.518Z,34.30
2022-08-04T13:35:54.314Z,34.20
2022-08-04T13:38:27.304Z,34.20
2022-08-04T13:41:03.137Z,34.30
2022-08-04T13:44:15.640Z,34.30
2022-08-04T13:46:34.596Z,34.20
2022-08-04T13:49:42.661Z,34.20
2022-08-04T13:52:01.754Z,34.30
2022-08-04T13:54:42.354Z,34.30
2022-08-04T13:57:15.559Z,34.30
2022-08-04T13:59:49.841Z,34.30
2022-08-04T14:02:40.373Z,34.20
2022-08-04T14:05:18.792Z,34.30
2022-08-04T14:07:51.677Z,34.30
2022-08-04T14:10:19.989Z,34.30
2022-08-04T14:12:50.076Z,34.30
2022-08-04T14:16:02.540Z,34.30
2022-08-04T14:18:32.506Z,34.30
2022-08-04T14:21:07.119Z,34.30
2022-08-04T14:23:49.131Z,34.30
2022-08-04T14:26:31.601Z,34.30
2022-08-04T14:29:28.127Z,34.30
2022-08-04T14:32:14.521Z,34.30
2022-08-04T14:34:46.230Z,34.30
2022-08-04T14:37:20.613Z,34.30
2022-08-04T14:40:18.508Z,34.30
2022-08-04T14:42:55.681Z,34.30
2022-08-04T14:45:33.876Z,34.30
2022-08-04T14:48:07.780Z,34.30
2022-08-04T14:50:40.047Z,34.30
2022-08-04T14:53:10.828Z,34.30
2022-08-04T14:55:40.783Z,34.30
2022-08-04T14:58:34.551Z,34.30
2022-08-04T15:01:10.536Z,34.30
2022-08-04T15:03:50.317Z,34.30
2022-08-04T15:06:23.788Z,34.30
2022-08-04T15:08:54.730Z,34.30
2022-08-04T15:11:24.530Z,34.30
2022-08-04T15:13:54.021Z,34.20
2022-08-04T15:16:23.641Z,34.30
2022-08-04T15:18:54.708Z,34.20
2022-08-04T15:21:28.271Z,34.20
2022-08-04T15:23:57.446Z,34.20
2022-08-04T15:26:33.993Z,34.20
2022-08-04T15:29:16.280Z,34.20
2022-08-04T15:32:06.695Z,34.20
2022-08-04T15:34:50.806Z,34.20
2022-08-04T15:37:27.293Z,34.20
2022-08-04T15:40:05.225Z,34.20
2022-08-04T15:42:39.852Z,34.10
2022-08-04T15:46:02.094Z,34.10
2022-08-04T15:48:27.166Z,34.20
2022-08-04T15:51:14.296Z,34.10
2022-08-04T15:54:30.794Z,34.10
2022-08-04T15:57:02.429Z,34.20
2022-08-04T16:00:02.379Z,34.10
2022-08-04T16:02:44.226Z,34.10
2022-08-04T16:05:41.690Z,34.10
2022-08-04T16:08:16.792Z,34.10
2022-08-04T16:10:49.086Z,34.10
2022-08-04T16:13:20.465Z,34.10
2022-08-04T16:15:52.772Z,34.10
2022-08-04T16:18:39.225Z,34.10
2022-08-04T16:21:19.385Z,34.10
2022-08-04T16:24:16.779Z,34.00
2022-08-04T16:26:54.654Z,34.10
2022-08-04T16:29:42.248Z,34.00
2022-08-04T16:32:21.132Z,34.00
2022-08-04T16:34:56.750Z,34.00
2022-08-04T16:37:34.800Z,34.00
2022-08-04T16:40:38.141Z,34.00
2022-08-04T16:43:10.229Z,34.00
2022-08-04T16:45:50.881Z,34.00
2022-08-04T16:48:21.800Z,34.00
2022-08-04T16:51:04.660Z,34.00
2022-08-04T16:53:52.055Z,33.90
2022-08-04T16:56:35.411Z,34.00
2022-08-04T16:59:09.138Z,34.00
2022-08-04T17:01:39.395Z,34.00
2022-08-04T17:04:07.944Z,34.00
2022-08-04T17:06:39.321Z,34.00
2022-08-04T17:09:11.130Z,34.00
2022-08-04T17:11:41.059Z,34.00
2022-08-04T17:14:10.137Z,34.00
2022-08-04T17:16:41.826Z,34.00
2022-08-04T17:19:24.303Z,33.90
2022-08-04T17:22:04.004Z,34.00
2022-08-04T17:24:33.915Z,34.00
2022-08-04T17:27:04.112Z,34.00
2022-08-04T17:29:51.742Z,34.00
2022-08-04T17:32:22.766Z,34.00
2022-08-04T17:34:54.570Z,34.00
2022-08-04T17:37:52.555Z,34.00
2022-08-04T17:40:18.570Z,33.90
2022-08-04T17:44:00.983Z,33.90
2022-08-04T17:46:16.188Z,33.90
2022-08-04T17:49:10.532Z,33.90
2022-08-04T17:52:05.435Z,33.90
2022-08-04T17:54:41.015Z,33.90
2022-08-04T17:57:21.023Z,33.90
2022-08-04T17:59:58.917Z,33.80
2022-08-04T18:02:33.192Z,33.90
2022-08-04T18:05:06.818Z,33.90
2022-08-04T18:08:35.008Z,33.80
2022-08-04T18:10:51.594Z,33.80
2022-08-04T18:13:23.086Z,33.80
2022-08-04T18:16:02.904Z,33.80
2022-08-04T18:18:31.261Z,33.80
2022-08-04T18:21:02.999Z,33.80
2022-08-04T18:23:33.269Z,33.80
2022-08-04T18:26:03.567Z,33.80
2022-08-04T18:28:33.781Z,33.80
2022-08-04T18:31:03.526Z,33.70
2022-08-04T18:33:41.032Z,33.70
2022-08-04T18:36:33.572Z,33.70
2022-08-04T18:39:12.627Z,33.70
2022-08-04T18:42:01.298Z,33.70
2022-08-04T18:44:31.005Z,33.70
2022-08-04T18:47:19.392Z,33.60
2022-08-04T18:51:01.836Z,33.60
2022-08-04T18:52:41.891Z,33.60
2022-08-04T18:55:34.040Z,33.60
2022-08-04T18:58:06.488Z,33.60
2022-08-04T19:00:37.000Z,33.60
2022-08-04T19:03:16.214Z,33.50
2022-08-04T19:05:51.413Z,33.50
2022-08-04T19:08:32.948Z,33.50
2022-08-04T19:11:37.114Z,33.50
2022-08-04T19:13:58.670Z,33.50
2022-08-04T19:16:28.420Z,33.40
2022-08-04T19:18:58.136Z,33.40
2022-08-04T19:22:00.108Z,33.40
2022-08-04T19:27:08.191Z,33.30
2022-08-04T19:32:28.793Z,33.30
2022-08-04T19:35:00.935Z,33.30
2022-08-04T19:38:00.928Z,33.30
2022-08-04T19:40:17.238Z,33.30
2022-08-04T19:43:14.502Z,33.20
2022-08-04T19:45:45.258Z,33.20
2022-08-04T19:51:03.793Z,33.10
2022-08-04T19:53:37.076Z,33.10
2022-08-04T19:56:06.617Z,33.10
2022-08-04T19:58:34.597Z,33.00
2022-08-04T20:01:03.175Z,33.10
2022-08-04T20:04:09.383Z,33.00
2022-08-04T20:06:20.498Z,33.00
2022-08-04T20:08:48.934Z,33.00
2022-08-04T20:11:18.895Z,33.00
2022-08-04T20:13:54.367Z,32.90
2022-08-04T20:16:29.786Z,32.90
2022-08-04T20:19:03.672Z,32.90
2022-08-04T20:21:53.857Z,32.90
2022-08-04T20:27:15.368Z,32.80
2022-08-04T20:29:49.106Z,32.80
2022-08-04T20:32:21.792Z,32.80
2022-08-04T20:34:51.576Z,32.80
2022-08-04T20:37:23.622Z,32.70
2022-08-04T20:39:56.196Z,32.70
2022-08-04T20:42:27.141Z,32.70
2022-08-04T20:44:57.356Z,32.60
2022-08-04T20:47:27.148Z,32.60
2022-08-04T20:50:04.734Z,32.60
2022-08-04T20:52:36.193Z,32.60
2022-08-04T20:55:07.888Z,32.60
2022-08-04T20:57:48.858Z,32.50
2022-08-04T21:00:29.729Z,32.50
2022-08-04T21:02:58.795Z,32.50
2022-08-04T21:05:27.198Z,32.50
2022-08-04T21:07:57.479Z,32.40
2022-08-04T21:10:26.485Z,32.40
2022-08-04T21:12:55.449Z,32.40
2022-08-04T21:15:25.580Z,32.40
2022-08-04T21:17:57.868Z,32.40
2022-08-04T21:20:32.374Z,32.30
2022-08-04T21:23:03.698Z,32.30
2022-08-04T21:25:39.129Z,32.30
2022-08-04T21:28:11.602Z,32.30
2022-08-04T21:30:54.527Z,32.20
2022-08-04T21:33:50.206Z,32.20
2022-08-04T21:36:16.126Z,32.20
2022-08-04T21:38:51.556Z,32.20
2022-08-04T21:41:25.030Z,32.20
2022-08-04T21:43:56.576Z,32.20
2022-08-04T21:46:29.970Z,32.10
2022-08-04T21:48:58.901Z,32.10
2022-08-04T21:52:00.069Z,32.10
2022-08-04T21:54:22.018Z,32.10
2022-08-04T21:56:52.315Z,32.00
2022-08-04T21:59:30.421Z,32.00
2022-08-04T22:02:00.845Z,32.00
2022-08-04T22:04:29.610Z,32.00
2022-08-04T22:06:57.659Z,32.00
2022-08-04T22:09:28.816Z,31.90
2022-08-04T22:11:56.980Z,31.90
2022-08-04T22:14:28.973Z,31.90
2022-08-04T22:17:02.716Z,31.90
2022-08-04T22:19:50.362Z,31.90
2022-08-04T22:22:26.346Z,31.90
2022-08-04T22:24:58.910Z,31.80
2022-08-04T22:27:47.862Z,31.80
2022-08-04T22:30:24.100Z,31.80
2022-08-04T22:32:52.754Z,31.80
2022-08-04T22:35:36.210Z,31.80
2022-08-04T22:38:24.282Z,31.70
2022-08-04T22:40:59.922Z,31.70
2022-08-04T22:43:31.880Z,31.70
2022-08-04T22:46:05.265Z,31.70
2022-08-04T22:48:35.746Z,31.70
2022-08-04T22:51:05.563Z,31.70
2022-08-04T22:53:34.218Z,31.60
2022-08-04T22:56:10.173Z,31.60
2022-08-04T22:58:45.144Z,31.60
2022-08-04T23:01:15.926Z,31.60
2022-08-04T23:03:55.170Z,31.60
2022-08-04T23:06:28.469Z,31.60
2022-08-04T23:08:58.092Z,31.60
2022-08-04T23:11:35.216Z,31.60
2022-08-04T23:14:05.969Z,31.60
2022-08-04T23:16:40.696Z,31.50
2022-08-04T23:19:12.087Z,31.50
2022-08-04T23:21:47.938Z,31.50
2022-08-04T23:24:30.220Z,31.50
2022-08-04T23:27:00.390Z,31.50
2022-08-04T23:29:28.388Z,31.50
2022-08-04T23:32:20.338Z,31.50
2022-08-04T23:34:48.465Z,31.40
2022-08-04T23:37:16.639Z,31.40
2022-08-04T23:40:14.294Z,31.40
2022-08-04T23:42:33.912Z,31.40
2022-08-04T23:45:03.070Z,31.40
2022-08-04T23:48:15.454Z,31.40
2022-08-04T23:50:19.425Z,31.30
2022-08-04T23:52:49.561Z,31.30
2022-08-04T23:55:19.032Z,31.30
2022-08-04T23:58:05.952Z,31.30
